Time;durP1;ratioP1;P1;durP2;ratioP2;P2;SDS_P1;SDS_P2;PMS_P1;PMS_P2;Temp;Humidity;BMP_temperature;BMP_pressure;BME280_temperature;BME280_humidity;BME280_pressure;Samples;Min_cycle;Max_cycle;Signal;HPM_P1;HPM_P2
2022/09/05 00:01:42;;;;;;;6.35;4.05;;;;;;;;;;5021577;28;20263;-61
2022/09/05 00:04:12;;;;;;;4.28;3.90;;;;;;;;;;5022959;28;20232;-61
2022/09/05 00:06:41;;;;;;;5.97;3.58;;;;;;;;;;5023813;28;20740;-62
2022/09/05 00:09:11;;;;;;;4.32;3.92;;;;;;;;;;5015583;28;20240;-62
2022/09/05 00:11:39;;;;;;;4.40;3.50;;;;;;;;;;5019666;28;20237;-61
2022/09/05 00:14:11;;;;;;;4.88;3.63;;;;;;;;;;5017937;28;20239;-61
2022/09/05 00:16:47;;;;;;;5.97;3.75;;;;;;;;;;5021698;28;20272;-61
2022/09/05 00:19:22;;;;;;;4.43;3.83;;;;;;;;;;5019447;28;20300;-62
2022/09/05 00:22:01;;;;;;;6.07;4.55;;;;;;;;;;5021338;28;20231;-61
2022/09/05 00:24:32;;;;;;;4.47;4.07;;;;;;;;;;5019584;28;20239;-61
2022/09/05 00:27:03;;;;;;;6.72;3.88;;;;;;;;;;5020212;28;20237;-61
2022/09/05 00:29:44;;;;;;;4.22;3.83;;;;;;;;;;5023820;28;20228;-62
2022/09/05 00:32:16;;;;;;;4.32;3.28;;;;;;;;;;5020854;28;20250;-61
2022/09/05 00:34:53;;;;;;;4.93;4.10;;;;;;;;;;5022819;28;20272;-59
2022/09/05 00:37:31;;;;;;;7.28;3.60;;;;;;;;;;5022223;28;21181;-59
2022/09/05 00:40:13;;;;;;;8.60;3.70;;;;;;;;;;5014762;28;20316;-60
2022/09/05 00:42:39;;;;;;;4.18;3.67;;;;;;;;;;5013931;28;20282;-60
2022/09/05 00:45:08;;;;;;;3.40;3.17;;;;;;;;;;5015908;28;20233;-60
2022/09/05 00:47:39;;;;;;;5.00;4.20;;;;;;;;;;5020596;28;20232;-60
2022/09/05 00:50:09;;;;;;;6.53;3.97;;;;;;;;;;5012889;28;20236;-60
2022/09/05 00:52:39;;;;;;;3.67;3.38;;;;;;;;;;5011892;28;20244;-60
2022/09/05 00:55:13;;;;;;;6.40;4.82;;;;;;;;;;5019934;28;20307;-60
2022/09/05 00:57:49;;;;;;;4.38;3.97;;;;;;;;;;5024483;28;20232;-60
2022/09/05 01:00:16;;;;;;;5.63;3.97;;;;;;;;;;5011334;28;20233;-61
2022/09/05 01:02:50;;;;;;;5.25;4.32;;;;;;;;;;5024576;28;20228;-60
2022/09/05 01:05:25;;;;;;;4.57;4.00;;;;;;;;;;5026978;28;20353;-60
2022/09/05 01:08:04;;;;;;;5.07;3.97;;;;;;;;;;5019393;28;20232;-60
2022/09/05 01:10:35;;;;;;;6.07;3.75;;;;;;;;;;5019213;28;20232;-60
2022/09/05 01:13:11;;;;;;;3.75;3.33;;;;;;;;;;5018457;28;20890;-60
2022/09/05 01:15:43;;;;;;;5.28;4.20;;;;;;;;;;5023733;28;20324;-60
2022/09/05 01:18:19;;;;;;;5.13;3.80;;;;;;;;;;5008125;28;20243;-60
2022/09/05 01:20:53;;;;;;;4.78;4.32;;;;;;;;;;5019118;28;20232;-62
2022/09/05 01:23:47;;;;;;;4.93;4.07;;;;;;;;;;5013449;28;20686;-57
2022/09/05 01:26:21;;;;;;;5.18;4.15;;;;;;;;;;4982895;28;20307;-58
2022/09/05 01:28:55;;;;;;;5.45;4.43;;;;;;;;;;5022189;28;20606;-59
2022/09/05 01:31:26;;;;;;;4.45;4.05;;;;;;;;;;5015404;28;20729;-61
2022/09/05 01:33:57;;;;;;;4.10;3.80;;;;;;;;;;5029086;28;20236;-60
2022/09/05 01:36:30;;;;;;;6.50;3.92;;;;;;;;;;5020315;28;20236;-59
2022/09/05 01:39:01;;;;;;;4.55;4.00;;;;;;;;;;5022711;28;20359;-61
2022/09/05 01:41:30;;;;;;;4.25;3.85;;;;;;;;;;5015659;28;20228;-60
2022/09/05 01:44:12;;;;;;;4.85;4.38;;;;;;;;;;5017176;28;20660;-60
2022/09/05 01:46:43;;;;;;;6.80;3.97;;;;;;;;;;5015147;28;20749;-60
2022/09/05 01:49:23;;;;;;;4.78;4.28;;;;;;;;;;5016115;28;20295;-60
2022/09/05 01:51:54;;;;;;;4.40;3.78;;;;;;;;;;5024409;28;20287;-61
2022/09/05 01:54:24;;;;;;;4.85;4.28;;;;;;;;;;5015273;28;20259;-61
2022/09/05 01:56:55;;;;;;;5.22;4.05;;;;;;;;;;5021059;28;20235;-58
2022/09/05 01:59:26;;;;;;;5.85;4.13;;;;;;;;;;5013012;28;20541;-61
2022/09/05 02:02:03;;;;;;;5.65;4.22;;;;;;;;;;5015267;28;20236;-62
2022/09/05 02:04:40;;;;;;;4.90;4.15;;;;;;;;;;5021101;28;20263;-60
2022/09/05 02:07:12;;;;;;;4.57;3.95;;;;;;;;;;5012041;28;20231;-59
2022/09/05 02:09:41;;;;;;;6.50;4.97;;;;;;;;;;5020359;28;20237;-60
2022/09/05 02:12:17;;;;;;;4.45;3.95;;;;;;;;;;5024356;28;20613;-58
2022/09/05 02:14:44;;;;;;;5.07;3.80;;;;;;;;;;5021787;28;20239;-61
2022/09/05 02:17:19;;;;;;;5.55;4.35;;;;;;;;;;5022269;28;20270;-60
2022/09/05 02:19:49;;;;;;;7.07;4.47;;;;;;;;;;5021494;28;20229;-58
2022/09/05 02:22:18;;;;;;;5.97;4.32;;;;;;;;;;5021088;28;20232;-60
2022/09/05 02:24:45;;;;;;;5.38;4.25;;;;;;;;;;5024379;28;20806;-58
2022/09/05 02:27:20;;;;;;;6.22;3.78;;;;;;;;;;5012358;28;20286;-61
2022/09/05 02:29:54;;;;;;;5.90;4.70;;;;;;;;;;5016015;28;20232;-61
2022/09/05 02:32:23;;;;;;;5.65;4.55;;;;;;;;;;5019482;28;20696;-58
2022/09/05 02:34:55;;;;;;;4.72;4.32;;;;;;;;;;5024882;28;20232;-60
2022/09/05 02:37:24;;;;;;;6.13;4.97;;;;;;;;;;5023455;28;20654;-61
2022/09/05 02:39:51;;;;;;;4.30;3.88;;;;;;;;;;5020788;28;20244;-58
2022/09/05 02:42:21;;;;;;;5.55;5.05;;;;;;;;;;5037037;28;20604;-59
2022/09/05 02:44:57;;;;;;;6.82;4.45;;;;;;;;;;5021737;28;20256;-59
2022/09/05 02:47:28;;;;;;;6.15;3.92;;;;;;;;;;5023040;28;20558;-58
2022/09/05 02:50:00;;;;;;;6.57;4.18;;;;;;;;;;5020902;28;20316;-59
2022/09/05 02:52:29;;;;;;;6.78;4.20;;;;;;;;;;5016454;28;20891;-61
2022/09/05 02:54:56;;;;;;;6.00;5.13;;;;;;;;;;5018739;28;20312;-61
2022/09/05 02:57:33;;;;;;;5.20;4.70;;;;;;;;;;5027708;28;20294;-61
2022/09/05 03:00:04;;;;;;;4.40;4.00;;;;;;;;;;5019001;28;20236;-60
2022/09/05 03:02:40;;;;;;;5.97;4.22;;;;;;;;;;5022550;28;20232;-61
2022/09/05 03:05:09;;;;;;;4.28;3.83;;;;;;;;;;5019454;28;20306;-61
2022/09/05 03:07:59;;;;;;;5.43;4.28;;;;;;;;;;5026475;28;20252;-58
2022/09/05 03:10:36;;;;;;;6.30;4.43;;;;;;;;;;5002166;28;20236;-60
2022/09/05 03:13:23;;;;;;;5.45;4.57;;;;;;;;;;5019101;28;20228;-61
2022/09/05 03:16:07;;;;;;;5.40;4.40;;;;;;;;;;5019705;28;20232;-58
2022/09/05 03:18:52;;;;;;;4.55;3.95;;;;;;;;;;5018455;28;20229;-60
2022/09/05 03:21:31;;;;;;;5.95;4.22;;;;;;;;;;5024194;28;20496;-60
2022/09/05 03:24:09;;;;;;;4.88;4.38;;;;;;;;;;5011041;28;20746;-59
2022/09/05 03:26:50;;;;;;;5.22;4.72;;;;;;;;;;5021875;28;20251;-60
2022/09/05 03:29:47;;;;;;;6.70;3.88;;;;;;;;;;5010695;28;20232;-60
2022/09/05 03:32:31;;;;;;;5.97;4.05;;;;;;;;;;4957857;28;20258;-60
2022/09/05 03:35:16;;;;;;;5.13;4.63;;;;;;;;;;5008279;28;20236;-61
2022/09/05 03:37:54;;;;;;;4.97;4.47;;;;;;;;;;5023013;28;20322;-60
2022/09/05 03:40:36;;;;;;;5.82;4.63;;;;;;;;;;5016084;28;20243;-60
2022/09/05 03:43:11;;;;;;;5.75;4.38;;;;;;;;;;5018826;28;20290;-59
2022/09/05 03:45:45;;;;;;;4.82;4.38;;;;;;;;;;5017319;28;20241;-57
2022/09/05 03:48:21;;;;;;;5.07;4.60;;;;;;;;;;5027111;28;20256;-61
2022/09/05 03:50:54;;;;;;;4.75;3.22;;;;;;;;;;5015840;28;20237;-60
2022/09/05 03:53:35;;;;;;;4.80;4.40;;;;;;;;;;5020138;28;20235;-59
2022/09/05 03:56:10;;;;;;;5.30;4.63;;;;;;;;;;5020753;28;20773;-60
2022/09/05 03:58:44;;;;;;;5.88;3.80;;;;;;;;;;5020848;28;20243;-60
2022/09/05 04:01:12;;;;;;;4.72;3.92;;;;;;;;;;5020159;28;20236;-61
2022/09/05 04:03:41;;;;;;;4.70;4.05;;;;;;;;;;5025952;28;20263;-59
2022/09/05 04:06:11;;;;;;;4.43;4.03;;;;;;;;;;5018536;28;20239;-61
2022/09/05 04:08:43;;;;;;;7.07;4.35;;;;;;;;;;5023034;28;20240;-60
2022/09/05 04:11:12;;;;;;;4.85;4.45;;;;;;;;;;5011654;28;20248;-60
2022/09/05 04:13:44;;;;;;;4.35;3.95;;;;;;;;;;5025275;28;20237;-62
2022/09/05 04:16:13;;;;;;;4.65;4.20;;;;;;;;;;5021131;28;20245;-61
2022/09/05 04:18:41;;;;;;;7.68;4.20;;;;;;;;;;5019818;28;20233;-60
2022/09/05 04:21:12;;;;;;;6.50;3.95;;;;;;;;;;5014633;28;20237;-60
2022/09/05 04:23:45;;;;;;;6.50;3.97;;;;;;;;;;5019987;28;20521;-59
2022/09/05 04:26:20;;;;;;;4.25;3.83;;;;;;;;;;5021074;28;20328;-61
2022/09/05 04:29:02;;;;;;;6.20;4.80;;;;;;;;;;5022253;28;20243;-58
2022/09/05 04:31:34;;;;;;;5.10;3.88;;;;;;;;;;5023569;28;20236;-61
2022/09/05 04:34:04;;;;;;;7.78;4.32;;;;;;;;;;5022331;28;20597;-59
2022/09/05 04:36:32;;;;;;;6.35;4.50;;;;;;;;;;5018539;28;20240;-59
2022/09/05 04:39:23;;;;;;;4.15;3.78;;;;;;;;;;5015794;28;20259;-59
2022/09/05 04:41:50;;;;;;;4.32;3.92;;;;;;;;;;5020574;28;20233;-62
2022/09/05 04:44:18;;;;;;;3.70;3.40;;;;;;;;;;5025236;28;20232;-59
2022/09/05 04:46:46;;;;;;;3.95;3.55;;;;;;;;;;5020441;28;20236;-59
2022/09/05 04:49:14;;;;;;;5.15;3.90;;;;;;;;;;5017492;28;20230;-60
2022/09/05 04:51:51;;;;;;;4.57;3.55;;;;;;;;;;5017153;28;20229;-61
2022/09/05 04:54:27;;;;;;;4.35;3.83;;;;;;;;;;5020351;28;20496;-60
2022/09/05 04:56:55;;;;;;;8.63;4.60;;;;;;;;;;5019413;28;20770;-61
2022/09/05 04:59:25;;;;;;;4.53;3.95;;;;;;;;;;5019089;28;20288;-61
2022/09/05 05:01:53;;;;;;;4.47;3.13;;;;;;;;;;5017139;28;20228;-59
2022/09/05 05:04:27;;;;;;;7.50;3.72;;;;;;;;;;5011735;28;20229;-61
2022/09/05 05:07:00;;;;;;;5.63;4.43;;;;;;;;;;5019725;28;20239;-58
2022/09/05 05:09:31;;;;;;;3.95;3.65;;;;;;;;;;5018367;28;20233;-59
2022/09/05 05:11:59;;;;;;;3.90;3.40;;;;;;;;;;5023070;28;20232;-61
2022/09/05 05:14:28;;;;;;;4.40;3.45;;;;;;;;;;5022430;28;20232;-61
2022/09/05 05:16:57;;;;;;;5.30;3.72;;;;;;;;;;5016216;28;20240;-59
2022/09/05 05:19:26;;;;;;;5.20;3.95;;;;;;;;;;5016614;28;20236;-62
2022/09/05 05:21:54;;;;;;;4.78;3.80;;;;;;;;;;5016403;28;20726;-58
2022/09/05 05:24:23;;;;;;;5.55;3.90;;;;;;;;;;5017323;28;20229;-62
2022/09/05 05:26:54;;;;;;;4.90;3.65;;;;;;;;;;5018513;28;20313;-60
2022/09/05 05:29:22;;;;;;;3.95;3.65;;;;;;;;;;5001574;28;20240;-61
2022/09/05 05:31:50;;;;;;;5.25;3.97;;;;;;;;;;5021216;28;20245;-58
2022/09/05 05:34:18;;;;;;;4.40;4.00;;;;;;;;;;5015321;28;20647;-60
2022/09/05 05:36:50;;;;;;;6.10;4.00;;;;;;;;;;5020995;28;20240;-58
2022/09/05 05:39:21;;;;;;;6.03;3.55;;;;;;;;;;5017940;28;20228;-57
2022/09/05 05:41:49;;;;;;;5.95;4.38;;;;;;;;;;5019305;28;20233;-58
2022/09/05 05:44:18;;;;;;;5.22;3.80;;;;;;;;;;5016616;28;20236;-61
2022/09/05 05:46:46;;;;;;;6.72;3.55;;;;;;;;;;5020965;28;20255;-60
2022/09/05 05:49:31;;;;;;;4.30;3.90;;;;;;;;;;5014833;28;20245;-60
2022/09/05 05:52:05;;;;;;;7.65;3.47;;;;;;;;;;5016572;28;20311;-61
2022/09/05 05:54:35;;;;;;;3.80;3.50;;;;;;;;;;5020298;28;20239;-61
2022/09/05 05:57:18;;;;;;;3.85;3.17;;;;;;;;;;5015090;28;20997;-61
2022/09/05 06:00:00;;;;;;;3.55;3.22;;;;;;;;;;5017811;28;20655;-60
2022/09/05 06:02:40;;;;;;;4.95;3.55;;;;;;;;;;5017984;28;20233;-60
2022/09/05 06:05:21;;;;;;;4.20;3.38;;;;;;;;;;5020272;28;20254;-60
2022/09/05 06:07:52;;;;;;;4.57;2.90;;;;;;;;;;5016344;28;20243;-58
2022/09/05 06:10:42;;;;;;;4.38;3.45;;;;;;;;;;5025336;28;20247;-60
2022/09/05 06:13:27;;;;;;;3.90;3.42;;;;;;;;;;5020682;28;20737;-61
2022/09/05 06:16:08;;;;;;;6.50;3.60;;;;;;;;;;5022465;28;20740;-62
2022/09/05 06:18:50;;;;;;;4.55;3.80;;;;;;;;;;5016682;28;20233;-60
2022/09/05 06:21:31;;;;;;;4.00;3.35;;;;;;;;;;5014564;28;20244;-60
2022/09/05 06:24:17;;;;;;;5.82;4.15;;;;;;;;;;5014829;28;20225;-58
2022/09/05 06:27:00;;;;;;;4.30;3.60;;;;;;;;;;5018310;28;20415;-61
2022/09/05 06:29:30;;;;;;;4.07;3.40;;;;;;;;;;5022831;28;20232;-58
2022/09/05 06:32:01;;;;;;;4.68;3.40;;;;;;;;;;5017628;28;20717;-59
2022/09/05 06:34:37;;;;;;;4.88;2.88;;;;;;;;;;5026939;28;20231;-59
2022/09/05 06:37:16;;;;;;;3.92;3.28;;;;;;;;;;5026761;28;20235;-58
2022/09/05 06:39:51;;;;;;;4.43;4.03;;;;;;;;;;5022280;28;20236;-61
2022/09/05 06:42:23;;;;;;;3.97;3.58;;;;;;;;;;5016516;28;20240;-60
2022/09/05 06:45:01;;;;;;;4.18;3.50;;;;;;;;;;5021691;28;20232;-60
2022/09/05 06:47:27;;;;;;;6.88;4.20;;;;;;;;;;5016983;28;20233;-57
2022/09/05 06:50:04;;;;;;;3.35;3.03;;;;;;;;;;5021504;28;20320;-58
2022/09/05 06:52:49;;;;;;;3.92;3.08;;;;;;;;;;5020058;28;20235;-61
2022/09/05 06:55:42;;;;;;;3.70;3.40;;;;;;;;;;5019293;28;20240;-57
2022/09/05 06:58:26;;;;;;;9.90;3.88;;;;;;;;;;5019156;28;20243;-60
2022/09/05 07:00:53;;;;;;;3.67;3.38;;;;;;;;;;5022761;28;20232;-58
2022/09/05 07:03:27;;;;;;;4.28;3.33;;;;;;;;;;5016575;28;20319;-61
2022/09/05 07:05:55;;;;;;;5.05;3.60;;;;;;;;;;5019602;28;20710;-59
2022/09/05 07:08:25;;;;;;;4.40;3.80;;;;;;;;;;5010348;28;20280;-62
2022/09/05 07:10:55;;;;;;;4.28;3.88;;;;;;;;;;5019123;28;20236;-61
2022/09/05 07:13:27;;;;;;;4.70;4.07;;;;;;;;;;5017277;28;20224;-58
2022/09/05 07:15:55;;;;;;;3.65;3.28;;;;;;;;;;5023205;28;20477;-59
2022/09/05 07:18:25;;;;;;;3.53;3.22;;;;;;;;;;5017420;28;20943;-58
2022/09/05 07:20:53;;;;;;;3.42;3.13;;;;;;;;;;5022365;28;20220;-59
2022/09/05 07:23:26;;;;;;;3.50;3.05;;;;;;;;;;5015734;28;20235;-63
2022/09/05 07:25:54;;;;;;;4.75;3.55;;;;;;;;;;5017045;28;20251;-58
2022/09/05 07:28:22;;;;;;;5.75;3.80;;;;;;;;;;5022433;28;20231;-58
2022/09/05 07:30:50;;;;;;;6.90;3.15;;;;;;;;;;5022409;28;20237;-62
2022/09/05 07:33:18;;;;;;;5.45;3.58;;;;;;;;;;5018588;28;20714;-59
2022/09/05 07:35:45;;;;;;;7.47;3.92;;;;;;;;;;5023072;28;20236;-58
2022/09/05 07:38:13;;;;;;;3.55;3.22;;;;;;;;;;5020282;28;20259;-62
2022/09/05 07:40:44;;;;;;;3.92;3.42;;;;;;;;;;5025202;28;20259;-62
2022/09/05 07:43:14;;;;;;;7.80;3.63;;;;;;;;;;5023096;28;20235;-58
2022/09/05 07:45:45;;;;;;;3.85;3.50;;;;;;;;;;5024128;28;20614;-59
2022/09/05 07:48:15;;;;;;;4.28;3.88;;;;;;;;;;5015046;28;20233;-61
2022/09/05 07:50:46;;;;;;;5.93;3.72;;;;;;;;;;5018665;28;20240;-61
2022/09/05 07:53:14;;;;;;;4.07;3.72;;;;;;;;;;5019241;28;20244;-60
2022/09/05 07:55:41;;;;;;;4.10;3.80;;;;;;;;;;5019637;28;20247;-62
2022/09/05 07:58:10;;;;;;;4.00;3.25;;;;;;;;;;5018731;28;20232;-59
2022/09/05 08:00:36;;;;;;;11.40;3.58;;;;;;;;;;5019590;28;20262;-60
2022/09/05 08:03:10;;;;;;;4.13;3.72;;;;;;;;;;5023411;28;20233;-61
2022/09/05 08:05:39;;;;;;;4.50;3.92;;;;;;;;;;5027027;28;20255;-59
2022/09/05 08:08:08;;;;;;;4.88;3.75;;;;;;;;;;5022047;28;20233;-60
2022/09/05 08:10:37;;;;;;;4.60;4.03;;;;;;;;;;5020451;28;20229;-60
2022/09/05 08:13:07;;;;;;;7.60;4.15;;;;;;;;;;5017904;28;20236;-60
2022/09/05 08:15:33;;;;;;;4.82;3.63;;;;;;;;;;5019431;28;20229;-62
2022/09/05 08:18:07;;;;;;;4.18;3.42;;;;;;;;;;5020888;28;20232;-60
2022/09/05 08:20:41;;;;;;;5.72;4.10;;;;;;;;;;5022621;28;20227;-61
2022/09/05 08:23:10;;;;;;;6.57;4.45;;;;;;;;;;5025385;28;20268;-62
2022/09/05 08:25:38;;;;;;;4.78;3.90;;;;;;;;;;5025463;28;20232;-61
2022/09/05 08:28:07;;;;;;;6.22;3.90;;;;;;;;;;5017884;28;20244;-61
2022/09/05 08:30:38;;;;;;;6.53;3.50;;;;;;;;;;5017954;28;20240;-62
2022/09/05 08:33:06;;;;;;;3.80;3.40;;;;;;;;;;5024076;28;20243;-61
2022/09/05 08:35:37;;;;;;;4.75;3.95;;;;;;;;;;5019823;28;20232;-62
2022/09/05 08:38:06;;;;;;;6.03;3.95;;;;;;;;;;5022785;28;20243;-62
2022/09/05 08:40:36;;;;;;;5.70;3.72;;;;;;;;;;5023963;28;20264;-62
2022/09/05 08:43:04;;;;;;;3.70;3.40;;;;;;;;;;5024524;28;20236;-61
2022/09/05 08:45:36;;;;;;;4.93;3.90;;;;;;;;;;5020052;28;20336;-61
2022/09/05 08:48:09;;;;;;;3.95;3.47;;;;;;;;;;5017410;28;20303;-59
2022/09/05 08:50:40;;;;;;;6.57;4.47;;;;;;;;;;5020961;28;20239;-60
2022/09/05 08:53:12;;;;;;;4.43;4.03;;;;;;;;;;5023162;28;20244;-61
2022/09/05 08:55:41;;;;;;;5.45;3.22;;;;;;;;;;5014947;28;20238;-60
2022/09/05 08:58:27;;;;;;;5.53;4.28;;;;;;;;;;5019265;28;20240;-60
2022/09/05 09:00:55;;;;;;;5.65;3.35;;;;;;;;;;5020743;28;20232;-61
2022/09/05 09:03:23;;;;;;;3.75;3.45;;;;;;;;;;5019841;28;20329;-60
2022/09/05 09:06:22;;;;;;;4.13;3.72;;;;;;;;;;5021194;28;20239;-61
2022/09/05 09:09:03;;;;;;;5.53;4.18;;;;;;;;;;5019497;28;20232;-60
2022/09/05 09:11:33;;;;;;;4.35;3.92;;;;;;;;;;5022526;28;20239;-59
2022/09/05 09:14:14;;;;;;;6.43;4.25;;;;;;;;;;5018108;28;20236;-60
2022/09/05 09:16:45;;;;;;;3.67;3.38;;;;;;;;;;5024429;28;20251;-61
2022/09/05 09:19:13;;;;;;;4.10;3.70;;;;;;;;;;5019211;28;20243;-58
2022/09/05 09:21:42;;;;;;;5.97;3.65;;;;;;;;;;5029445;28;20243;-61
2022/09/05 09:24:22;;;;;;;3.13;2.92;;;;;;;;;;5021346;28;20276;-61
2022/09/05 09:26:51;;;;;;;4.25;3.90;;;;;;;;;;5021962;28;20611;-61
2022/09/05 09:29:17;;;;;;;5.00;3.78;;;;;;;;;;5019925;28;20229;-58
2022/09/05 09:31:53;;;;;;;4.35;3.53;;;;;;;;;;5023141;28;20225;-59
2022/09/05 09:34:35;;;;;;;6.88;4.07;;;;;;;;;;5024413;28;20240;-59
2022/09/05 09:37:13;;;;;;;6.75;3.88;;;;;;;;;;5021622;28;20244;-59
2022/09/05 09:39:54;;;;;;;5.72;4.07;;;;;;;;;;5021329;28;20267;-60
2022/09/05 09:42:27;;;;;;;4.47;3.60;;;;;;;;;;5009036;28;20224;-61
2022/09/05 09:45:00;;;;;;;4.43;3.72;;;;;;;;;;5017027;28;20664;-58
2022/09/05 09:47:36;;;;;;;3.60;3.30;;;;;;;;;;5021344;28;20232;-60
2022/09/05 09:50:14;;;;;;;4.90;3.50;;;;;;;;;;5018147;28;20231;-58
2022/09/05 09:53:01;;;;;;;4.95;4.07;;;;;;;;;;5015009;28;20243;-58
2022/09/05 09:55:45;;;;;;;3.83;3.53;;;;;;;;;;5012939;28;20321;-59
2022/09/05 09:58:19;;;;;;;4.22;3.67;;;;;;;;;;5022562;28;20582;-59
2022/09/05 10:00:50;;;;;;;5.40;3.83;;;;;;;;;;5013295;28;20244;-60
2022/09/05 10:03:31;;;;;;;4.05;3.65;;;;;;;;;;5022378;28;20239;-60
2022/09/05 10:06:10;;;;;;;3.17;2.92;;;;;;;;;;5016562;28;20239;-59
2022/09/05 10:08:42;;;;;;;6.65;3.20;;;;;;;;;;5016224;28;20231;-61
2022/09/05 10:11:17;;;;;;;4.90;3.10;;;;;;;;;;5016520;28;20320;-60
2022/09/05 10:13:57;;;;;;;3.50;3.20;;;;;;;;;;5017289;28;20236;-60
2022/09/05 10:16:44;;;;;;;4.28;2.97;;;;;;;;;;5015808;28;20584;-61
2022/09/05 10:19:31;;;;;;;5.75;3.45;;;;;;;;;;5023559;28;20236;-60
2022/09/05 10:22:05;;;;;;;3.28;3.08;;;;;;;;;;4991647;28;20806;-60
2022/09/05 10:24:49;;;;;;;4.07;3.67;;;;;;;;;;5011859;28;20238;-59
2022/09/05 10:27:23;;;;;;;8.07;3.60;;;;;;;;;;5008775;28;20702;-59
2022/09/05 10:30:05;;;;;;;3.47;3.17;;;;;;;;;;5016078;28;20232;-60
2022/09/05 10:32:39;;;;;;;4.47;3.08;;;;;;;;;;5017096;28;20228;-58
2022/09/05 10:35:11;;;;;;;5.75;3.08;;;;;;;;;;5016099;28;20237;-58
2022/09/05 10:37:41;;;;;;;3.00;2.80;;;;;;;;;;5020598;28;20777;-60
2022/09/05 10:40:10;;;;;;;3.67;3.38;;;;;;;;;;5012201;28;20233;-58
2022/09/05 10:42:42;;;;;;;3.92;3.08;;;;;;;;;;5019943;28;20462;-60
2022/09/05 10:45:14;;;;;;;6.68;3.03;;;;;;;;;;5019861;28;20548;-60
2022/09/05 10:47:47;;;;;;;3.58;3.15;;;;;;;;;;5014307;28;20236;-61
2022/09/05 10:50:20;;;;;;;4.20;3.17;;;;;;;;;;5017879;28;20713;-58
2022/09/05 10:53:01;;;;;;;5.03;3.42;;;;;;;;;;5011177;28;20271;-60
2022/09/05 10:55:32;;;;;;;3.67;3.28;;;;;;;;;;5021492;28;20243;-59
2022/09/05 10:58:05;;;;;;;5.47;2.95;;;;;;;;;;5024598;28;20935;-58
2022/09/05 11:00:48;;;;;;;4.40;3.00;;;;;;;;;;5023341;28;20252;-59
2022/09/05 11:03:18;;;;;;;3.13;2.90;;;;;;;;;;5022034;28;20254;-61
2022/09/05 11:05:47;;;;;;;7.63;3.67;;;;;;;;;;5014322;28;20232;-60
2022/09/05 11:08:20;;;;;;;3.55;3.33;;;;;;;;;;5012259;28;20283;-60
2022/09/05 11:10:51;;;;;;;4.32;3.28;;;;;;;;;;5015861;28;20236;-58
2022/09/05 11:13:30;;;;;;;3.70;3.40;;;;;;;;;;5021667;28;20233;-60
2022/09/05 11:15:58;;;;;;;3.28;2.97;;;;;;;;;;5026561;28;20225;-62
2022/09/05 11:18:37;;;;;;;5.45;3.15;;;;;;;;;;5018860;28;20236;-59
2022/09/05 11:21:06;;;;;;;4.97;3.08;;;;;;;;;;5018465;28;20224;-58
2022/09/05 11:23:37;;;;;;;3.65;3.40;;;;;;;;;;5018778;28;20237;-61
2022/09/05 11:26:06;;;;;;;3.10;2.90;;;;;;;;;;5014807;28;20729;-61
2022/09/05 11:28:36;;;;;;;3.67;3.30;;;;;;;;;;5020175;28;20233;-63
2022/09/05 11:31:06;;;;;;;4.72;3.47;;;;;;;;;;5023924;28;20703;-60
2022/09/05 11:33:40;;;;;;;3.22;2.92;;;;;;;;;;5024163;28;20236;-58
2022/09/05 11:36:08;;;;;;;3.47;3.22;;;;;;;;;;5016557;28;20237;-60
2022/09/05 11:38:55;;;;;;;3.75;3.38;;;;;;;;;;5015002;28;20232;-61
2022/09/05 11:41:46;;;;;;;3.47;3.13;;;;;;;;;;5022605;28;20687;-59
2022/09/05 11:44:24;;;;;;;5.50;3.80;;;;;;;;;;5004004;28;20441;-60
2022/09/05 11:46:59;;;;;;;3.60;3.40;;;;;;;;;;5016116;28;20331;-60
2022/09/05 11:49:42;;;;;;;4.15;3.15;;;;;;;;;;5016107;28;20228;-58
2022/09/05 11:52:16;;;;;;;3.55;3.30;;;;;;;;;;5020757;28;20298;-58
2022/09/05 11:55:00;;;;;;;3.95;3.55;;;;;;;;;;5022072;28;20228;-61
2022/09/05 11:57:37;;;;;;;3.40;3.10;;;;;;;;;;5019998;28;20609;-61
2022/09/05 12:00:21;;;;;;;5.00;3.50;;;;;;;;;;5022903;28;20709;-59
2022/09/05 12:03:10;;;;;;;3.28;3.08;;;;;;;;;;5018545;28;20232;-60
2022/09/05 12:05:54;;;;;;;4.00;3.70;;;;;;;;;;5024826;28;20315;-60
2022/09/05 12:08:24;;;;;;;3.97;3.38;;;;;;;;;;5022262;28;20311;-60
2022/09/05 12:10:59;;;;;;;3.42;3.05;;;;;;;;;;5022794;28;20229;-60
2022/09/05 12:13:31;;;;;;;4.03;3.63;;;;;;;;;;5018635;28;20293;-61
2022/09/05 12:15:58;;;;;;;5.53;3.78;;;;;;;;;;5022433;28;20232;-58
2022/09/05 12:18:30;;;;;;;4.15;3.88;;;;;;;;;;5025998;28;20237;-60
2022/09/05 12:21:02;;;;;;;4.68;4.22;;;;;;;;;;5022342;28;20239;-60
2022/09/05 12:23:33;;;;;;;6.03;3.75;;;;;;;;;;5016235;28;20259;-61
2022/09/05 12:26:03;;;;;;;5.03;4.63;;;;;;;;;;5021625;28;20232;-60
2022/09/05 12:28:32;;;;;;;6.13;4.13;;;;;;;;;;5022104;28;20236;-62
2022/09/05 12:31:09;;;;;;;3.90;3.50;;;;;;;;;;5017371;28;20236;-60
2022/09/05 12:33:37;;;;;;;5.15;4.30;;;;;;;;;;5019608;28;20260;-62
2022/09/05 12:36:08;;;;;;;5.85;4.85;;;;;;;;;;5026653;28;20241;-58
2022/09/05 12:38:37;;;;;;;6.82;4.00;;;;;;;;;;5023244;28;20240;-60
2022/09/05 12:41:06;;;;;;;8.00;5.07;;;;;;;;;;5010900;28;20240;-60
2022/09/05 12:43:35;;;;;;;5.95;4.88;;;;;;;;;;5015414;28;20237;-58
2022/09/05 12:46:02;;;;;;;4.63;4.22;;;;;;;;;;5015520;28;20240;-60
2022/09/05 12:48:31;;;;;;;5.50;4.90;;;;;;;;;;5021677;28;20286;-61
2022/09/05 12:51:01;;;;;;;7.72;4.95;;;;;;;;;;5021149;28;20992;-59
2022/09/05 12:53:39;;;;;;;7.13;4.35;;;;;;;;;;5016689;28;20471;-61
2022/09/05 12:56:08;;;;;;;5.63;4.85;;;;;;;;;;5022755;28;20264;-59
2022/09/05 12:58:35;;;;;;;5.55;5.05;;;;;;;;;;5009234;28;20236;-61
2022/09/05 13:01:09;;;;;;;5.72;4.75;;;;;;;;;;5015839;28;20229;-58
2022/09/05 13:03:43;;;;;;;4.50;4.10;;;;;;;;;;5021802;28;20313;-59
2022/09/05 13:06:18;;;;;;;6.90;4.13;;;;;;;;;;5021277;28;20244;-61
2022/09/05 13:08:46;;;;;;;4.72;4.32;;;;;;;;;;5018670;28;20260;-62
2022/09/05 13:11:14;;;;;;;11.52;4.65;;;;;;;;;;5025200;28;20257;-60
2022/09/05 13:13:45;;;;;;;5.72;5.15;;;;;;;;;;5017319;28;20228;-61
2022/09/05 13:16:12;;;;;;;5.43;4.93;;;;;;;;;;5020078;28;20257;-61
2022/09/05 13:18:39;;;;;;;4.05;3.75;;;;;;;;;;5013878;28;20236;-60
2022/09/05 13:21:09;;;;;;;4.95;4.55;;;;;;;;;;5021305;28;20240;-60
2022/09/05 13:23:40;;;;;;;4.28;3.92;;;;;;;;;;5021155;28;20236;-61
2022/09/05 13:26:10;;;;;;;5.25;4.85;;;;;;;;;;5018402;28;20248;-61
2022/09/05 13:28:41;;;;;;;6.13;5.63;;;;;;;;;;5020341;28;20311;-61
2022/09/05 13:31:09;;;;;;;5.13;4.72;;;;;;;;;;5019730;28;20236;-62
2022/09/05 13:33:43;;;;;;;6.18;5.53;;;;;;;;;;5014191;28;20632;-62
2022/09/05 13:36:10;;;;;;;5.47;4.97;;;;;;;;;;5022008;28;20282;-62
2022/09/05 13:38:40;;;;;;;5.03;4.15;;;;;;;;;;5021125;28;20230;-61
2022/09/05 13:41:12;;;;;;;5.20;4.40;;;;;;;;;;5016289;28;20237;-59
2022/09/05 13:43:38;;;;;;;5.00;4.32;;;;;;;;;;5021940;28;20714;-60
2022/09/05 13:46:09;;;;;;;5.22;4.80;;;;;;;;;;5017769;28;20253;-59
2022/09/05 13:48:41;;;;;;;5.03;4.45;;;;;;;;;;5017671;28;20232;-58
2022/09/05 13:51:17;;;;;;;5.90;5.40;;;;;;;;;;5019154;28;20228;-61
2022/09/05 13:53:51;;;;;;;5.53;4.28;;;;;;;;;;5023229;28;20872;-57
2022/09/05 13:56:21;;;;;;;5.53;5.03;;;;;;;;;;5023236;28;20916;-60
2022/09/05 13:58:52;;;;;;;5.43;4.97;;;;;;;;;;5012252;28;20248;-60
2022/09/05 14:01:30;;;;;;;4.65;4.35;;;;;;;;;;5011380;28;21326;-61
2022/09/05 14:04:06;;;;;;;6.00;5.40;;;;;;;;;;5021936;28;20233;-58
2022/09/05 14:06:55;;;;;;;6.72;5.30;;;;;;;;;;5015136;28;20236;-59
2022/09/05 14:09:30;;;;;;;5.18;4.68;;;;;;;;;;5004607;28;20648;-60
2022/09/05 14:11:59;;;;;;;5.97;3.88;;;;;;;;;;5020581;28;20227;-60
2022/09/05 14:14:34;;;;;;;5.90;5.40;;;;;;;;;;5010918;28;20225;-60
2022/09/05 14:17:04;;;;;;;4.72;4.20;;;;;;;;;;5016121;28;20326;-59
2022/09/05 14:22:32;;;;;;;4.53;4.13;;;;;;;;;;5020121;28;20239;-57
2022/09/05 14:25:00;;;;;;;5.63;5.18;;;;;;;;;;5017817;28;20240;-57
2022/09/05 14:27:28;;;;;;;4.78;4.32;;;;;;;;;;5021760;28;20240;-61
2022/09/05 14:29:55;;;;;;;4.93;4.53;;;;;;;;;;5017869;28;20232;-59
2022/09/05 14:32:37;;;;;;;5.65;5.07;;;;;;;;;;5028574;28;20227;-61
2022/09/05 14:35:07;;;;;;;6.28;5.68;;;;;;;;;;5020256;28;20239;-62
2022/09/05 14:37:40;;;;;;;5.18;4.68;;;;;;;;;;5024426;28;20797;-58
2022/09/05 14:40:27;;;;;;;5.80;5.40;;;;;;;;;;5025092;28;20236;-60
2022/09/05 14:43:13;;;;;;;5.63;5.05;;;;;;;;;;5013178;28;20233;-59
2022/09/05 14:45:47;;;;;;;4.90;4.43;;;;;;;;;;5021590;28;20237;-61
2022/09/05 14:48:29;;;;;;;5.22;4.72;;;;;;;;;;5020514;28;20240;-58
2022/09/05 14:51:02;;;;;;;5.30;4.90;;;;;;;;;;5024743;28;20237;-61
2022/09/05 14:53:29;;;;;;;5.32;4.30;;;;;;;;;;5023455;28;20235;-61
2022/09/05 14:55:56;;;;;;;6.20;5.07;;;;;;;;;;5027632;28;20239;-58
2022/09/05 14:58:26;;;;;;;5.85;5.35;;;;;;;;;;5025414;28;20243;-61
2022/09/05 15:00:56;;;;;;;5.43;4.90;;;;;;;;;;5027675;28;20247;-62
2022/09/05 15:03:25;;;;;;;5.88;4.65;;;;;;;;;;5028361;28;20283;-59
2022/09/05 15:05:51;;;;;;;4.82;4.40;;;;;;;;;;5028760;28;20240;-61
2022/09/05 15:08:19;;;;;;;4.20;3.90;;;;;;;;;;5021782;28;20256;-61
2022/09/05 15:10:47;;;;;;;6.03;4.70;;;;;;;;;;5023791;28;20225;-61
2022/09/05 15:13:15;;;;;;;5.53;5.10;;;;;;;;;;5021156;28;20719;-60
2022/09/05 15:15:46;;;;;;;5.05;4.65;;;;;;;;;;5016808;28;20247;-61
2022/09/05 15:18:18;;;;;;;5.35;4.85;;;;;;;;;;5021298;28;20233;-61
2022/09/05 15:20:45;;;;;;;4.95;4.53;;;;;;;;;;5015376;28;20237;-61
2022/09/05 15:23:28;;;;;;;4.75;3.70;;;;;;;;;;5020050;28;20232;-61